sensor_id;sensor_type;location;lat;lon;timestamp;pressure;altitude;pressure_sealevel;temperature;humidity
73220;BME280;61434;43.538;-5.688;2023-03-21T00:00:14;61621.03;;;-144.32;100.00
73220;BME280;61434;43.538;-5.688;2023-03-21T00:02:40;61621.03;;;-144.32;100.00
73220;BME280;61434;43.538;-5.688;2023-03-21T00:05:05;61621.03;;;-144.32;100.00
73220;BME280;61434;43.538;-5.688;2023-03-21T00:07:31;101723.88;;;18.28;54.88
73220;BME280;61434;43.538;-5.688;2023-03-21T00:09:56;101847.66;;;16.57;64.94
73220;BME280;61434;43.538;-5.688;2023-03-21T00:12:22;101846.06;;;16.45;64.93
73220;BME280;61434;43.538;-5.688;2023-03-21T00:14:47;101839.78;;;16.64;64.85
73220;BME280;61434;43.538;-5.688;2023-03-21T00:17:12;101838.06;;;16.53;65.15
73220;BME280;61434;43.538;-5.688;2023-03-21T00:19:39;101840.69;;;16.74;64.42
73220;BME280;61434;43.538;-5.688;2023-03-21T00:22:05;101840.81;;;16.73;64.21
73220;BME280;61434;43.538;-5.688;2023-03-21T00:24:31;101838.19;;;16.52;64.65
73220;BME280;61434;43.538;-5.688;2023-03-21T00:26:56;61621.03;;;-144.32;100.00
73220;BME280;61434;43.538;-5.688;2023-03-21T00:29:21;61621.03;;;-144.32;100.00
73220;BME280;61434;43.538;-5.688;2023-03-21T00:31:46;61621.03;;;-144.32;100.00
73220;BME280;61434;43.538;-5.688;2023-03-21T00:34:12;61621.03;;;-144.32;100.00
73220;BME280;61434;43.538;-5.688;2023-03-21T00:36:37;101828.03;;;16.25;65.39
73220;BME280;61434;43.538;-5.688;2023-03-21T00:39:03;101821.00;;;16.32;65.85
73220;BME280;61434;43.538;-5.688;2023-03-21T00:41:30;101819.03;;;16.44;64.76
73220;BME280;61434;43.538;-5.688;2023-03-21T00:43:55;101829.91;;;16.24;65.75
73220;BME280;61434;43.538;-5.688;2023-03-21T00:46:21;101821.44;;;16.37;65.16
73220;BME280;61434;43.538;-5.688;2023-03-21T00:48:47;101833.31;;;16.26;65.41
73220;BME280;61434;43.538;-5.688;2023-03-21T00:51:21;101825.88;;;16.38;64.69
73220;BME280;61434;43.538;-5.688;2023-03-21T00:53:52;61621.03;;;-144.32;100.00
73220;BME280;61434;43.538;-5.688;2023-03-21T00:56:17;61621.03;;;-144.32;100.00
73220;BME280;61434;43.538;-5.688;2023-03-21T00:58:42;61621.03;;;-144.32;100.00
73220;BME280;61434;43.538;-5.688;2023-03-21T01:01:08;61621.03;;;-144.32;100.00
73220;BME280;61434;43.538;-5.688;2023-03-21T01:03:33;61621.03;;;-144.32;100.00
73220;BME280;61434;43.538;-5.688;2023-03-21T01:06:06;101825.88;;;16.38;64.69
73220;BME280;61434;43.538;-5.688;2023-03-21T01:08:37;101836.03;;;16.36;64.45
73220;BME280;61434;43.538;-5.688;2023-03-21T01:11:04;101837.31;;;16.22;64.37
73220;BME280;61434;43.538;-5.688;2023-03-21T01:13:30;101832.44;;;16.06;64.99
73220;BME280;61434;43.538;-5.688;2023-03-21T01:15:56;101843.88;;;16.00;65.20
73220;BME280;61434;43.538;-5.688;2023-03-21T01:18:24;101850.97;;;15.92;65.27
73220;BME280;61434;43.538;-5.688;2023-03-21T01:20:51;101851.31;;;16.08;65.37
73220;BME280;61434;43.538;-5.688;2023-03-21T01:23:17;101852.13;;;15.99;64.94
73220;BME280;61434;43.538;-5.688;2023-03-21T01:25:42;101850.47;;;16.17;64.73
73220;BME280;61434;43.538;-5.688;2023-03-21T01:28:08;101847.00;;;15.96;64.74
73220;BME280;61434;43.538;-5.688;2023-03-21T01:30:33;101840.56;;;15.97;65.07
73220;BME280;61434;43.538;-5.688;2023-03-21T01:32:59;101844.84;;;16.09;64.86
73220;BME280;61434;43.538;-5.688;2023-03-21T01:35:24;101847.25;;;15.93;65.02
73220;BME280;61434;43.538;-5.688;2023-03-21T01:37:49;101838.84;;;15.96;64.74
73220;BME280;61434;43.538;-5.688;2023-03-21T01:40:25;101844.25;;;15.86;64.63
73220;BME280;61434;43.538;-5.688;2023-03-21T01:42:50;101842.63;;;15.74;65.11
73220;BME280;61434;43.538;-5.688;2023-03-21T01:48:00;101840.41;;;15.98;64.17
73220;BME280;61434;43.538;-5.688;2023-03-21T01:50:25;101836.84;;;15.98;64.61
73220;BME280;61434;43.538;-5.688;2023-03-21T01:52:51;101842.09;;;15.89;64.82
73220;BME280;61434;43.538;-5.688;2023-03-21T01:55:16;101842.03;;;15.70;65.00
73220;BME280;61434;43.538;-5.688;2023-03-21T01:57:46;101836.34;;;15.73;65.35
73220;BME280;61434;43.538;-5.688;2023-03-21T02:00:14;101837.38;;;15.82;65.36
73220;BME280;61434;43.538;-5.688;2023-03-21T02:02:41;101832.50;;;15.55;65.44
73220;BME280;61434;43.538;-5.688;2023-03-21T02:06:01;101830.69;;;15.34;66.50
73220;BME280;61434;43.538;-5.688;2023-03-21T02:08:00;101823.09;;;15.59;65.91
73220;BME280;61434;43.538;-5.688;2023-03-21T02:10:26;101814.19;;;15.78;65.18
73220;BME280;61434;43.538;-5.688;2023-03-21T02:12:52;101811.78;;;15.94;64.68
73220;BME280;61434;43.538;-5.688;2023-03-21T02:15:19;101818.16;;;15.43;65.77
73220;BME280;61434;43.538;-5.688;2023-03-21T02:25:44;101796.59;;;15.72;64.46
73220;BME280;61434;43.538;-5.688;2023-03-21T02:40:45;101782.22;;;15.60;64.45
73220;BME280;61434;43.538;-5.688;2023-03-21T02:48:24;101788.91;;;15.56;64.80
73220;BME280;61434;43.538;-5.688;2023-03-21T02:50:53;101786.84;;;15.70;64.35
73220;BME280;61434;43.538;-5.688;2023-03-21T02:53:21;101784.69;;;15.63;64.25
73220;BME280;61434;43.538;-5.688;2023-03-21T02:55:47;101778.34;;;15.53;64.63
73220;BME280;61434;43.538;-5.688;2023-03-21T02:58:17;101776.16;;;15.47;65.15
73220;BME280;61434;43.538;-5.688;2023-03-21T03:00:43;101779.88;;;15.46;64.99
73220;BME280;61434;43.538;-5.688;2023-03-21T03:03:10;101775.88;;;15.50;65.23
73220;BME280;61434;43.538;-5.688;2023-03-21T03:05:39;101777.53;;;15.62;64.77
73220;BME280;61434;43.538;-5.688;2023-03-21T03:16:13;101781.47;;;15.49;65.18
73220;BME280;61434;43.538;-5.688;2023-03-21T03:18:51;101773.59;;;15.46;65.54
73220;BME280;61434;43.538;-5.688;2023-03-21T03:21:23;101758.78;;;15.59;64.80
73220;BME280;61434;43.538;-5.688;2023-03-21T03:24:00;101750.75;;;15.48;65.64
73220;BME280;61434;43.538;-5.688;2023-03-21T03:26:35;101756.41;;;15.35;65.59
73220;BME280;61434;43.538;-5.688;2023-03-21T03:29:07;101761.53;;;15.29;65.67
73220;BME280;61434;43.538;-5.688;2023-03-21T03:31:35;101755.94;;;15.30;66.05
73220;BME280;61434;43.538;-5.688;2023-03-21T03:34:04;101764.53;;;15.35;65.81
73220;BME280;61434;43.538;-5.688;2023-03-21T03:36:33;101759.72;;;15.39;65.27
73220;BME280;61434;43.538;-5.688;2023-03-21T03:39:04;101758.41;;;15.33;65.08
73220;BME280;61434;43.538;-5.688;2023-03-21T03:41:30;101756.50;;;15.24;65.56
73220;BME280;61434;43.538;-5.688;2023-03-21T03:43:58;101754.00;;;15.11;65.82
73220;BME280;61434;43.538;-5.688;2023-03-21T03:46:29;101760.56;;;15.09;65.90
73220;BME280;61434;43.538;-5.688;2023-03-21T03:48:59;101763.22;;;14.99;66.19
73220;BME280;61434;43.538;-5.688;2023-03-21T03:51:29;101760.47;;;15.20;65.22
73220;BME280;61434;43.538;-5.688;2023-03-21T03:54:00;101766.66;;;15.01;65.74
73220;BME280;61434;43.538;-5.688;2023-03-21T03:56:28;101762.66;;;14.96;66.12
73220;BME280;61434;43.538;-5.688;2023-03-21T03:58:54;101771.25;;;15.01;66.26
73220;BME280;61434;43.538;-5.688;2023-03-21T04:01:20;61621.03;;;-144.32;100.00
73220;BME280;61434;43.538;-5.688;2023-03-21T04:03:46;61621.03;;;-144.32;100.00
73220;BME280;61434;43.538;-5.688;2023-03-21T04:06:13;101771.25;;;15.01;66.26
73220;BME280;61434;43.538;-5.688;2023-03-21T04:08:39;101776.91;;;14.98;65.61
73220;BME280;61434;43.538;-5.688;2023-03-21T04:11:05;101773.94;;;15.01;65.65
73220;BME280;61434;43.538;-5.688;2023-03-21T04:13:31;101784.00;;;15.10;65.70
73220;BME280;61434;43.538;-5.688;2023-03-21T04:15:57;101787.03;;;15.17;65.48
73220;BME280;61434;43.538;-5.688;2023-03-21T04:18:23;101785.00;;;15.39;64.83
73220;BME280;61434;43.538;-5.688;2023-03-21T04:20:48;101791.34;;;15.19;65.00
73220;BME280;61434;43.538;-5.688;2023-03-21T04:23:15;101786.41;;;14.82;66.22
73220;BME280;61434;43.538;-5.688;2023-03-21T04:25:42;101788.56;;;15.09;65.85
73220;BME280;61434;43.538;-5.688;2023-03-21T04:28:09;101791.28;;;15.09;65.69
73220;BME280;61434;43.538;-5.688;2023-03-21T04:30:34;101789.69;;;15.07;65.74
73220;BME280;61434;43.538;-5.688;2023-03-21T04:33:00;101791.09;;;14.80;66.12
73220;BME280;61434;43.538;-5.688;2023-03-21T04:35:26;101798.81;;;15.06;65.65
73220;BME280;61434;43.538;-5.688;2023-03-21T04:37:52;101794.28;;;14.85;66.41
73220;BME280;61434;43.538;-5.688;2023-03-21T04:40:17;101801.84;;;15.12;66.06
73220;BME280;61434;43.538;-5.688;2023-03-21T04:42:43;101798.97;;;15.04;65.41
73220;BME280;61434;43.538;-5.688;2023-03-21T04:45:08;101803.06;;;14.99;65.81
73220;BME280;61434;43.538;-5.688;2023-03-21T04:47:34;101796.44;;;14.92;66.07
73220;BME280;61434;43.538;-5.688;2023-03-21T04:50:00;101802.94;;;15.31;65.23
73220;BME280;61434;43.538;-5.688;2023-03-21T04:52:25;101807.13;;;15.35;64.04
73220;BME280;61434;43.538;-5.688;2023-03-21T04:54:51;101805.66;;;15.00;65.04
73220;BME280;61434;43.538;-5.688;2023-03-21T04:57:16;101808.03;;;15.14;65.05
73220;BME280;61434;43.538;-5.688;2023-03-21T04:59:41;101808.72;;;15.17;64.43
73220;BME280;61434;43.538;-5.688;2023-03-21T05:02:07;101808.78;;;15.26;64.25
73220;BME280;61434;43.538;-5.688;2023-03-21T05:04:32;101811.00;;;15.11;65.26
73220;BME280;61434;43.538;-5.688;2023-03-21T05:06:57;101816.66;;;15.29;64.39
73220;BME280;61434;43.538;-5.688;2023-03-21T05:09:23;101826.72;;;15.18;64.73
73220;BME280;61434;43.538;-5.688;2023-03-21T05:11:48;101818.13;;;15.33;64.17
73220;BME280;61434;43.538;-5.688;2023-03-21T05:14:21;101821.91;;;15.21;64.28
73220;BME280;61434;43.538;-5.688;2023-03-21T05:16:46;101823.09;;;15.28;64.36
73220;BME280;61434;43.538;-5.688;2023-03-21T05:19:20;101814.00;;;15.39;63.96
73220;BME280;61434;43.538;-5.688;2023-03-21T05:21:47;101825.31;;;15.44;64.09
73220;BME280;61434;43.538;-5.688;2023-03-21T05:24:14;101821.09;;;15.61;63.10
73220;BME280;61434;43.538;-5.688;2023-03-21T05:26:39;101824.72;;;15.40;63.66
73220;BME280;61434;43.538;-5.688;2023-03-21T05:29:05;101824.72;;;15.40;63.66
73220;BME280;61434;43.538;-5.688;2023-03-21T05:31:31;101838.47;;;15.49;64.06
73220;BME280;61434;43.538;-5.688;2023-03-21T05:33:56;61621.03;;;-144.32;100.00
73220;BME280;61434;43.538;-5.688;2023-03-21T05:36:21;61621.03;;;-144.32;100.00
73220;BME280;61434;43.538;-5.688;2023-03-21T05:38:47;61621.03;;;-144.32;100.00
73220;BME280;61434;43.538;-5.688;2023-03-21T05:41:13;61621.03;;;-144.32;100.00
73220;BME280;61434;43.538;-5.688;2023-03-21T05:43:38;61621.03;;;-144.32;100.00
73220;BME280;61434;43.538;-5.688;2023-03-21T05:46:04;61621.03;;;-144.32;100.00
73220;BME280;61434;43.538;-5.688;2023-03-21T05:48:29;101838.47;;;15.49;64.06
73220;BME280;61434;43.538;-5.688;2023-03-21T05:50:54;101843.22;;;15.56;63.76
73220;BME280;61434;43.538;-5.688;2023-03-21T05:53:20;101843.22;;;15.56;63.76
73220;BME280;61434;43.538;-5.688;2023-03-21T05:55:46;101852.19;;;15.47;64.04
73220;BME280;61434;43.538;-5.688;2023-03-21T05:58:11;61621.03;;;-144.32;100.00
73220;BME280;61434;43.538;-5.688;2023-03-21T06:00:36;61621.03;;;-144.32;100.00
73220;BME280;61434;43.538;-5.688;2023-03-21T06:03:01;61621.03;;;-144.32;100.00
73220;BME280;61434;43.538;-5.688;2023-03-21T06:05:27;61621.03;;;-144.32;100.00
73220;BME280;61434;43.538;-5.688;2023-03-21T06:07:52;61621.03;;;-144.32;100.00
73220;BME280;61434;43.538;-5.688;2023-03-21T06:10:17;61621.03;;;-144.32;100.00
73220;BME280;61434;43.538;-5.688;2023-03-21T06:12:43;61621.03;;;-144.32;100.00
73220;BME280;61434;43.538;-5.688;2023-03-21T06:15:08;61621.03;;;-144.32;100.00
73220;BME280;61434;43.538;-5.688;2023-03-21T06:17:34;61621.03;;;-144.32;100.00
73220;BME280;61434;43.538;-5.688;2023-03-21T06:19:59;61621.03;;;-144.32;100.00
73220;BME280;61434;43.538;-5.688;2023-03-21T06:22:31;61621.03;;;-144.32;100.00
73220;BME280;61434;43.538;-5.688;2023-03-21T06:24:56;61621.03;;;-144.32;100.00
73220;BME280;61434;43.538;-5.688;2023-03-21T06:27:22;61621.03;;;-144.32;100.00
73220;BME280;61434;43.538;-5.688;2023-03-21T06:29:47;61621.03;;;-144.32;100.00
73220;BME280;61434;43.538;-5.688;2023-03-21T06:32:13;61621.03;;;-144.32;100.00
73220;BME280;61434;43.538;-5.688;2023-03-21T06:34:39;61621.03;;;-144.32;100.00
73220;BME280;61434;43.538;-5.688;2023-03-21T06:37:05;61621.03;;;-144.32;100.00
73220;BME280;61434;43.538;-5.688;2023-03-21T06:39:30;61621.03;;;-144.32;100.00
73220;BME280;61434;43.538;-5.688;2023-03-21T06:41:57;61621.03;;;-144.32;100.00
73220;BME280;61434;43.538;-5.688;2023-03-21T06:44:22;61621.03;;;-144.32;100.00
73220;BME280;61434;43.538;-5.688;2023-03-21T06:46:48;61621.03;;;-144.32;100.00
73220;BME280;61434;43.538;-5.688;2023-03-21T06:49:14;61621.03;;;-144.32;100.00
73220;BME280;61434;43.538;-5.688;2023-03-21T06:51:39;61621.03;;;-144.32;100.00
73220;BME280;61434;43.538;-5.688;2023-03-21T06:54:05;61621.03;;;-144.32;100.00
73220;BME280;61434;43.538;-5.688;2023-03-21T06:56:30;101849.59;;;15.46;66.50
73220;BME280;61434;43.538;-5.688;2023-03-21T06:58:55;61621.03;;;-144.32;100.00
73220;BME280;61434;43.538;-5.688;2023-03-21T07:01:21;61621.03;;;-144.32;100.00
73220;BME280;61434;43.538;-5.688;2023-03-21T07:03:46;61621.03;;;-144.32;100.00
73220;BME280;61434;43.538;-5.688;2023-03-21T07:06:12;61621.03;;;-144.32;100.00
73220;BME280;61434;43.538;-5.688;2023-03-21T07:08:38;101855.03;;;15.46;65.22
73220;BME280;61434;43.538;-5.688;2023-03-21T07:11:04;61621.03;;;-144.32;100.00
73220;BME280;61434;43.538;-5.688;2023-03-21T07:13:30;61621.03;;;-144.32;100.00
73220;BME280;61434;43.538;-5.688;2023-03-21T07:15:56;61621.03;;;-144.32;100.00
73220;BME280;61434;43.538;-5.688;2023-03-21T07:18:21;61621.03;;;-144.32;100.00
73220;BME280;61434;43.538;-5.688;2023-03-21T07:20:47;61621.03;;;-144.32;100.00
73220;BME280;61434;43.538;-5.688;2023-03-21T07:23:16;61621.03;;;-144.32;100.00
73220;BME280;61434;43.538;-5.688;2023-03-21T07:25:41;101867.69;;;15.87;64.04
73220;BME280;61434;43.538;-5.688;2023-03-21T07:28:07;101866.28;;;15.93;64.58
73220;BME280;61434;43.538;-5.688;2023-03-21T07:30:33;101872.31;;;15.65;64.59
73220;BME280;61434;43.538;-5.688;2023-03-21T07:32:59;101875.88;;;15.66;64.54
73220;BME280;61434;43.538;-5.688;2023-03-21T07:35:24;61621.03;;;-144.32;100.00
73220;BME280;61434;43.538;-5.688;2023-03-21T07:37:49;61621.03;;;-144.32;100.00
73220;BME280;61434;43.538;-5.688;2023-03-21T07:40:15;61621.03;;;-144.32;100.00
73220;BME280;61434;43.538;-5.688;2023-03-21T07:42:40;61621.03;;;-144.32;100.00
73220;BME280;61434;43.538;-5.688;2023-03-21T07:45:06;61621.03;;;-144.32;100.00
73220;BME280;61434;43.538;-5.688;2023-03-21T07:47:32;61621.03;;;-144.32;100.00
73220;BME280;61434;43.538;-5.688;2023-03-21T07:49:57;61621.03;;;-144.32;100.00
73220;BME280;61434;43.538;-5.688;2023-03-21T07:52:23;61621.03;;;-144.32;100.00
73220;BME280;61434;43.538;-5.688;2023-03-21T07:54:48;61621.03;;;-144.32;100.00
73220;BME280;61434;43.538;-5.688;2023-03-21T07:57:14;61621.03;;;-144.32;100.00
73220;BME280;61434;43.538;-5.688;2023-03-21T07:59:39;61621.03;;;-144.32;100.00
73220;BME280;61434;43.538;-5.688;2023-03-21T08:02:04;61621.03;;;-144.32;100.00
73220;BME280;61434;43.538;-5.688;2023-03-21T08:04:31;61621.03;;;-144.32;100.00
73220;BME280;61434;43.538;-5.688;2023-03-21T08:06:56;61621.03;;;-144.32;100.00
73220;BME280;61434;43.538;-5.688;2023-03-21T08:09:21;61621.03;;;-144.32;100.00
73220;BME280;61434;43.538;-5.688;2023-03-21T08:11:47;61621.03;;;-144.32;100.00
73220;BME280;61434;43.538;-5.688;2023-03-21T08:14:12;61621.03;;;-144.32;100.00
73220;BME280;61434;43.538;-5.688;2023-03-21T08:16:37;61621.03;;;-144.32;100.00
73220;BME280;61434;43.538;-5.688;2023-03-21T08:19:03;61621.03;;;-144.32;100.00
73220;BME280;61434;43.538;-5.688;2023-03-21T08:21:28;61621.03;;;-144.32;100.00
73220;BME280;61434;43.538;-5.688;2023-03-21T08:23:53;61621.03;;;-144.32;100.00
73220;BME280;61434;43.538;-5.688;2023-03-21T08:26:19;61621.03;;;-144.32;100.00
73220;BME280;61434;43.538;-5.688;2023-03-21T08:28:44;61621.03;;;-144.32;100.00
73220;BME280;61434;43.538;-5.688;2023-03-21T08:31:10;61621.03;;;-144.32;100.00
73220;BME280;61434;43.538;-5.688;2023-03-21T08:33:36;61621.03;;;-144.32;100.00
73220;BME280;61434;43.538;-5.688;2023-03-21T08:36:02;61621.03;;;-144.32;100.00
73220;BME280;61434;43.538;-5.688;2023-03-21T08:38:28;61621.03;;;-144.32;100.00
73220;BME280;61434;43.538;-5.688;2023-03-21T08:40:57;61621.03;;;-144.32;100.00
73220;BME280;61434;43.538;-5.688;2023-03-21T08:43:24;61621.03;;;-144.32;100.00
73220;BME280;61434;43.538;-5.688;2023-03-21T08:45:50;61621.03;;;-144.32;100.00
73220;BME280;61434;43.538;-5.688;2023-03-21T08:48:15;61621.03;;;-144.32;100.00
73220;BME280;61434;43.538;-5.688;2023-03-21T08:50:40;61621.03;;;-144.32;100.00
73220;BME280;61434;43.538;-5.688;2023-03-21T08:53:05;61621.03;;;-144.32;100.00
73220;BME280;61434;43.538;-5.688;2023-03-21T08:55:31;61621.03;;;-144.32;100.00
73220;BME280;61434;43.538;-5.688;2023-03-21T08:57:57;61621.03;;;-144.32;100.00
73220;BME280;61434;43.538;-5.688;2023-03-21T09:00:22;61621.03;;;-144.32;100.00
73220;BME280;61434;43.538;-5.688;2023-03-21T09:02:48;61621.03;;;-144.32;100.00
73220;BME280;61434;43.538;-5.688;2023-03-21T09:05:15;61621.03;;;-144.32;100.00
73220;BME280;61434;43.538;-5.688;2023-03-21T09:07:41;61621.03;;;-144.32;100.00
73220;BME280;61434;43.538;-5.688;2023-03-21T09:10:08;61621.03;;;-144.32;100.00
73220;BME280;61434;43.538;-5.688;2023-03-21T09:12:35;61621.03;;;-144.32;100.00
73220;BME280;61434;43.538;-5.688;2023-03-21T09:15:01;61621.03;;;-144.32;100.00
73220;BME280;61434;43.538;-5.688;2023-03-21T09:17:30;61621.03;;;-144.32;100.00
73220;BME280;61434;43.538;-5.688;2023-03-21T09:19:57;61621.03;;;-144.32;100.00
73220;BME280;61434;43.538;-5.688;2023-03-21T09:22:24;61621.03;;;-144.32;100.00
73220;BME280;61434;43.538;-5.688;2023-03-21T09:24:50;61621.03;;;-144.32;100.00
73220;BME280;61434;43.538;-5.688;2023-03-21T09:27:16;61621.03;;;-144.32;100.00
73220;BME280;61434;43.538;-5.688;2023-03-21T09:29:42;61621.03;;;-144.32;100.00
73220;BME280;61434;43.538;-5.688;2023-03-21T09:32:11;61621.03;;;-144.32;100.00
73220;BME280;61434;43.538;-5.688;2023-03-21T09:34:37;61621.03;;;-144.32;100.00
73220;BME280;61434;43.538;-5.688;2023-03-21T09:37:08;61621.03;;;-144.32;100.00
73220;BME280;61434;43.538;-5.688;2023-03-21T09:39:37;61621.03;;;-144.32;100.00
73220;BME280;61434;43.538;-5.688;2023-03-21T09:47:20;61621.03;;;-144.32;100.00
73220;BME280;61434;43.538;-5.688;2023-03-21T09:50:03;61621.03;;;-144.32;100.00
73220;BME280;61434;43.538;-5.688;2023-03-21T09:54:54;61621.03;;;-144.32;100.00
73220;BME280;61434;43.538;-5.688;2023-03-21T09:57:30;61621.03;;;-144.32;100.00
73220;BME280;61434;43.538;-5.688;2023-03-21T09:59:58;61621.03;;;-144.32;100.00
73220;BME280;61434;43.538;-5.688;2023-03-21T10:02:36;61621.03;;;-144.32;100.00
73220;BME280;61434;43.538;-5.688;2023-03-21T10:05:10;61621.03;;;-144.32;100.00
73220;BME280;61434;43.538;-5.688;2023-03-21T10:07:38;61621.03;;;-144.32;100.00
73220;BME280;61434;43.538;-5.688;2023-03-21T10:10:04;61621.03;;;-144.32;100.00
73220;BME280;61434;43.538;-5.688;2023-03-21T10:12:30;61621.03;;;-144.32;100.00
73220;BME280;61434;43.538;-5.688;2023-03-21T10:14:56;61621.03;;;-144.32;100.00
73220;BME280;61434;43.538;-5.688;2023-03-21T10:17:30;61621.03;;;-144.32;100.00
73220;BME280;61434;43.538;-5.688;2023-03-21T10:20:19;61621.03;;;-144.32;100.00
73220;BME280;61434;43.538;-5.688;2023-03-21T10:22:45;61621.03;;;-144.32;100.00
73220;BME280;61434;43.538;-5.688;2023-03-21T10:25:13;61621.03;;;-144.32;100.00
73220;BME280;61434;43.538;-5.688;2023-03-21T10:27:39;61621.03;;;-144.32;100.00
73220;BME280;61434;43.538;-5.688;2023-03-21T10:30:06;61621.03;;;-144.32;100.00
73220;BME280;61434;43.538;-5.688;2023-03-21T10:32:34;61621.03;;;-144.32;100.00
73220;BME280;61434;43.538;-5.688;2023-03-21T10:35:00;61621.03;;;-144.32;100.00
73220;BME280;61434;43.538;-5.688;2023-03-21T10:37:29;61621.03;;;-144.32;100.00
73220;BME280;61434;43.538;-5.688;2023-03-21T10:39:56;61621.03;;;-144.32;100.00
73220;BME280;61434;43.538;-5.688;2023-03-21T10:42:27;61621.03;;;-144.32;100.00
73220;BME280;61434;43.538;-5.688;2023-03-21T10:44:56;61621.03;;;-144.32;100.00
73220;BME280;61434;43.538;-5.688;2023-03-21T10:47:32;61621.03;;;-144.32;100.00
73220;BME280;61434;43.538;-5.688;2023-03-21T10:50:02;61621.03;;;-144.32;100.00
73220;BME280;61434;43.538;-5.688;2023-03-21T10:52:28;61621.03;;;-144.32;100.00
73220;BME280;61434;43.538;-5.688;2023-03-21T10:55:05;61621.03;;;-144.32;100.00
73220;BME280;61434;43.538;-5.688;2023-03-21T10:57:32;61621.03;;;-144.32;100.00
73220;BME280;61434;43.538;-5.688;2023-03-21T10:59:58;61621.03;;;-144.32;100.00
73220;BME280;61434;43.538;-5.688;2023-03-21T11:02:29;61621.03;;;-144.32;100.00
73220;BME280;61434;43.538;-5.688;2023-03-21T11:04:56;61621.03;;;-144.32;100.00
73220;BME280;61434;43.538;-5.688;2023-03-21T11:07:28;61621.03;;;-144.32;100.00
73220;BME280;61434;43.538;-5.688;2023-03-21T11:09:59;61621.03;;;-144.32;100.00
73220;BME280;61434;43.538;-5.688;2023-03-21T11:12:35;61621.03;;;-144.32;100.00
73220;BME280;61434;43.538;-5.688;2023-03-21T11:17:39;61621.03;;;-144.32;100.00
73220;BME280;61434;43.538;-5.688;2023-03-21T11:20:05;61621.03;;;-144.32;100.00
73220;BME280;61434;43.538;-5.688;2023-03-21T11:22:37;61621.03;;;-144.32;100.00
73220;BME280;61434;43.538;-5.688;2023-03-21T11:25:04;61621.03;;;-144.32;100.00
73220;BME280;61434;43.538;-5.688;2023-03-21T11:27:31;61621.03;;;-144.32;100.00
73220;BME280;61434;43.538;-5.688;2023-03-21T11:29:57;61621.03;;;-144.32;100.00
73220;BME280;61434;43.538;-5.688;2023-03-21T11:32:30;61621.03;;;-144.32;100.00
73220;BME280;61434;43.538;-5.688;2023-03-21T11:34:57;61621.03;;;-144.32;100.00
73220;BME280;61434;43.538;-5.688;2023-03-21T11:39:53;61621.03;;;-144.32;100.00
73220;BME280;61434;43.538;-5.688;2023-03-21T11:42:30;61621.03;;;-144.32;100.00
73220;BME280;61434;43.538;-5.688;2023-03-21T11:45:00;61621.03;;;-144.32;100.00
73220;BME280;61434;43.538;-5.688;2023-03-21T11:47:26;61621.03;;;-144.32;100.00
73220;BME280;61434;43.538;-5.688;2023-03-21T11:49:52;61621.03;;;-144.32;100.00
73220;BME280;61434;43.538;-5.688;2023-03-21T11:52:22;61621.03;;;-144.32;100.00
73220;BME280;61434;43.538;-5.688;2023-03-21T11:54:58;61621.03;;;-144.32;100.00
73220;BME280;61434;43.538;-5.688;2023-03-21T11:57:37;61621.03;;;-144.32;100.00
73220;BME280;61434;43.538;-5.688;2023-03-21T12:05:06;61621.03;;;-144.32;100.00
73220;BME280;61434;43.538;-5.688;2023-03-21T12:18:05;61621.03;;;-144.32;100.00
73220;BME280;61434;43.538;-5.688;2023-03-21T12:20:38;61621.03;;;-144.32;100.00
73220;BME280;61434;43.538;-5.688;2023-03-21T12:25:31;61621.03;;;-144.32;100.00
73220;BME280;61434;43.538;-5.688;2023-03-21T12:33:03;61621.03;;;-144.32;100.00
73220;BME280;61434;43.538;-5.688;2023-03-21T12:38:14;61621.03;;;-144.32;100.00
73220;BME280;61434;43.538;-5.688;2023-03-21T12:43:36;61621.03;;;-144.32;100.00
73220;BME280;61434;43.538;-5.688;2023-03-21T12:46:09;61621.03;;;-144.32;100.00
73220;BME280;61434;43.538;-5.688;2023-03-21T12:48:41;61621.03;;;-144.32;100.00
73220;BME280;61434;43.538;-5.688;2023-03-21T12:51:12;61621.03;;;-144.32;100.00
73220;BME280;61434;43.538;-5.688;2023-03-21T12:56:58;61621.03;;;-144.32;100.00
73220;BME280;61434;43.538;-5.688;2023-03-21T12:59:20;61621.03;;;-144.32;100.00
73220;BME280;61434;43.538;-5.688;2023-03-21T13:01:46;61621.03;;;-144.32;100.00
73220;BME280;61434;43.538;-5.688;2023-03-21T13:04:20;61621.03;;;-144.32;100.00
73220;BME280;61434;43.538;-5.688;2023-03-21T13:06:52;61621.03;;;-144.32;100.00
73220;BME280;61434;43.538;-5.688;2023-03-21T13:09:35;61621.03;;;-144.32;100.00
73220;BME280;61434;43.538;-5.688;2023-03-21T13:12:02;61621.03;;;-144.32;100.00
73220;BME280;61434;43.538;-5.688;2023-03-21T13:14:33;61621.03;;;-144.32;100.00
73220;BME280;61434;43.538;-5.688;2023-03-21T13:17:05;61621.03;;;-144.32;100.00
73220;BME280;61434;43.538;-5.688;2023-03-21T13:32:45;61621.03;;;-144.32;100.00
73220;BME280;61434;43.538;-5.688;2023-03-21T13:34:44;61621.03;;;-144.32;100.00
73220;BME280;61434;43.538;-5.688;2023-03-21T13:37:16;61621.03;;;-144.32;100.00
73220;BME280;61434;43.538;-5.688;2023-03-21T13:39:45;61621.03;;;-144.32;100.00
73220;BME280;61434;43.538;-5.688;2023-03-21T13:42:21;61621.03;;;-144.32;100.00
73220;BME280;61434;43.538;-5.688;2023-03-21T13:44:49;61621.03;;;-144.32;100.00
73220;BME280;61434;43.538;-5.688;2023-03-21T13:55:28;61621.03;;;-144.32;100.00
73220;BME280;61434;43.538;-5.688;2023-03-21T13:57:54;61621.03;;;-144.32;100.00
73220;BME280;61434;43.538;-5.688;2023-03-21T14:02:49;61621.03;;;-144.32;100.00
73220;BME280;61434;43.538;-5.688;2023-03-21T14:05:18;61621.03;;;-144.32;100.00
73220;BME280;61434;43.538;-5.688;2023-03-21T14:07:46;61621.03;;;-144.32;100.00
73220;BME280;61434;43.538;-5.688;2023-03-21T14:10:30;61621.03;;;-144.32;100.00
73220;BME280;61434;43.538;-5.688;2023-03-21T14:12:57;61621.03;;;-144.32;100.00